Time;durP1;ratioP1;P1;durP2;ratioP2;P2;SDS_P1;SDS_P2;PMS_P1;PMS_P2;Temp;Humidity;BMP_temperature;BMP_pressure;BME280_temperature;BME280_humidity;BME280_pressure;Samples;Min_cycle;Max_cycle;Signal;HPM_P1;HPM_P2
2022/10/18 00:00:41;;;;;;;1.52;1.42;;;20.30;53.10;;;;;;5133925;28;20047;-11
2022/10/18 00:03:07;;;;;;;1.80;1.70;;;20.30;53.10;;;;;;5134197;28;20479;-11
2022/10/18 00:05:33;;;;;;;2.28;1.58;;;20.30;53.10;;;;;;5133886;28;20051;-11
2022/10/18 00:07:58;;;;;;;1.60;1.50;;;20.30;53.30;;;;;;5133625;28;20154;-11
2022/10/18 00:10:24;;;;;;;2.92;1.50;;;20.20;53.30;;;;;;5133767;28;20051;-11
2022/10/18 00:12:50;;;;;;;1.98;1.70;;;20.30;53.30;;;;;;5134297;28;20050;-11
2022/10/18 00:15:16;;;;;;;1.80;1.70;;;20.20;53.30;;;;;;5133988;28;20187;-11
2022/10/18 00:17:42;;;;;;;1.58;1.48;;;20.30;53.20;;;;;;5133604;28;20058;-11
2022/10/18 00:20:09;;;;;;;1.77;1.67;;;20.30;53.20;;;;;;5133652;28;20039;-11
2022/10/18 00:22:37;;;;;;;1.67;1.40;;;20.30;53.20;;;;;;5133520;28;20089;-11
2022/10/18 00:25:04;;;;;;;2.08;1.70;;;20.30;53.20;;;;;;5133585;28;20051;-11
2022/10/18 00:27:31;;;;;;;1.70;1.60;;;20.30;53.20;;;;;;5133503;28;20093;-11
2022/10/18 00:29:57;;;;;;;2.22;1.67;;;20.40;53.10;;;;;;5133746;28;20547;-11
2022/10/18 00:32:23;;;;;;;1.88;1.70;;;20.30;53.20;;;;;;5133200;28;20051;-12
2022/10/18 00:34:48;;;;;;;1.98;1.70;;;20.20;53.20;;;;;;5133812;28;20532;-11
2022/10/18 00:37:14;;;;;;;1.42;1.33;;;20.20;53.20;;;;;;5133538;28;20136;-12
2022/10/18 00:39:40;;;;;;;1.67;1.58;;;20.20;53.30;;;;;;5133472;28;20384;-11
2022/10/18 00:42:05;;;;;;;2.15;1.80;;;20.30;53.20;;;;;;5133771;28;20059;-11
2022/10/18 00:44:31;;;;;;;2.42;1.85;;;20.30;53.20;;;;;;5133282;28;20051;-11
2022/10/18 00:47:08;;;;;;;2.30;1.88;;;20.30;53.10;;;;;;5133206;28;20079;-12
2022/10/18 00:49:38;;;;;;;2.00;1.60;;;20.30;53.10;;;;;;5133505;28;20053;-11
2022/10/18 00:52:09;;;;;;;1.92;1.80;;;20.30;53.20;;;;;;5134793;27;20043;-11
2022/10/18 00:54:39;;;;;;;1.77;1.67;;;20.30;53.20;;;;;;5137531;28;20051;-11
2022/10/18 00:57:05;;;;;;;2.55;1.77;;;20.30;53.30;;;;;;5136664;28;20409;-11
2022/10/18 00:59:33;;;;;;;1.60;1.50;;;20.30;53.20;;;;;;5136883;28;20497;-11
2022/10/18 01:01:58;;;;;;;1.70;1.60;;;20.30;53.10;;;;;;5136760;28;20047;-11
2022/10/18 01:04:24;;;;;;;2.08;1.70;;;20.30;53.10;;;;;;5136763;28;20047;-11
2022/10/18 01:07:11;;;;;;;2.13;1.70;;;20.30;53.10;;;;;;5136567;28;20058;-11
2022/10/18 01:10:12;;;;;;;2.42;1.80;;;20.30;53.10;;;;;;5136814;28;20046;-11
2022/10/18 01:12:52;;;;;;;1.55;1.45;;;20.30;53.20;;;;;;5136562;28;20104;-11
2022/10/18 01:15:30;;;;;;;1.83;1.60;;;20.30;53.10;;;;;;5136826;28;20082;-11
2022/10/18 01:18:15;;;;;;;1.88;1.67;;;20.30;53.10;;;;;;5136483;28;20055;-11
2022/10/18 01:21:02;;;;;;;1.60;1.50;;;20.30;53.10;;;;;;5136294;28;20126;-11
2022/10/18 01:24:10;;;;;;;1.60;1.50;;;20.30;53.10;;;;;;5136373;28;20099;-11
2022/10/18 01:27:05;;;;;;;2.00;1.80;;;20.30;53.20;;;;;;5053291;28;20053;-11
2022/10/18 01:30:01;;;;;;;1.67;1.50;;;20.30;53.20;;;;;;5135247;28;20055;-11
2022/10/18 01:32:46;;;;;;;1.73;1.50;;;20.30;53.20;;;;;;5136307;28;20043;-11
2022/10/18 01:35:16;;;;;;;1.60;1.50;;;20.30;53.20;;;;;;5136226;28;20043;-11
2022/10/18 01:37:43;;;;;;;1.63;1.50;;;20.30;53.20;;;;;;5136127;28;20039;-11
2022/10/18 01:40:14;;;;;;;2.00;1.80;;;20.30;53.10;;;;;;5136104;28;20547;-11
2022/10/18 01:42:41;;;;;;;2.10;1.90;;;20.30;53.10;;;;;;5136441;28;20076;-11
2022/10/18 01:45:09;;;;;;;2.15;1.27;;;20.20;53.20;;;;;;5136683;28;20086;-11
2022/10/18 01:47:35;;;;;;;1.52;1.42;;;20.20;53.20;;;;;;5136267;28;20137;-11
2022/10/18 01:50:05;;;;;;;1.70;1.45;;;20.20;53.20;;;;;;5136375;28;20126;-11
2022/10/18 01:52:30;;;;;;;1.60;1.40;;;20.20;53.30;;;;;;5136265;28;20061;-11
2022/10/18 01:54:59;;;;;;;1.50;1.40;;;20.20;53.30;;;;;;5135920;28;20047;-11
2022/10/18 01:57:29;;;;;;;1.77;1.60;;;20.20;53.40;;;;;;5135474;28;20406;-11
2022/10/18 02:00:17;;;;;;;2.00;1.80;;;20.10;53.30;;;;;;5136486;28;20055;-11
2022/10/18 02:02:52;;;;;;;1.55;1.45;;;20.20;53.30;;;;;;5135079;27;20100;-11
2022/10/18 02:05:27;;;;;;;1.63;1.50;;;20.20;53.30;;;;;;5135482;28;20115;-11
2022/10/18 02:08:11;;;;;;;1.40;1.30;;;20.20;53.30;;;;;;5136011;28;20051;-11
2022/10/18 02:10:55;;;;;;;2.65;1.75;;;20.20;53.30;;;;;;5135550;28;20043;-11
2022/10/18 02:13:22;;;;;;;1.67;1.50;;;20.20;53.40;;;;;;5136129;28;20066;-11
2022/10/18 02:15:54;;;;;;;1.52;1.42;;;20.20;53.40;;;;;;5135448;28;20051;-12
2022/10/18 02:18:34;;;;;;;1.73;1.63;;;20.20;53.40;;;;;;5135624;28;20043;-11
2022/10/18 02:21:02;;;;;;;1.83;1.45;;;20.20;53.30;;;;;;5135844;28;20043;-11
2022/10/18 02:23:28;;;;;;;1.83;1.33;;;20.20;53.30;;;;;;5135430;28;20130;-11
2022/10/18 02:25:54;;;;;;;1.73;1.55;;;20.30;53.20;;;;;;5135386;28;20388;-11
2022/10/18 02:28:20;;;;;;;1.60;1.50;;;20.20;53.30;;;;;;5135611;28;20059;-12
2022/10/18 02:31:01;;;;;;;1.65;1.55;;;20.20;53.30;;;;;;5135600;28;20055;-11
2022/10/18 02:33:36;;;;;;;1.60;1.40;;;20.20;53.30;;;;;;5135280;28;20051;-11
2022/10/18 02:36:13;;;;;;;1.50;1.40;;;20.20;53.30;;;;;;5135617;28;20088;-11
2022/10/18 02:38:40;;;;;;;1.50;1.20;;;20.20;53.40;;;;;;5135477;28;20129;-11
2022/10/18 02:41:06;;;;;;;1.70;1.40;;;20.20;53.30;;;;;;5135229;28;20051;-11
2022/10/18 02:43:34;;;;;;;1.58;1.48;;;20.20;53.30;;;;;;5135088;28;20051;-11
2022/10/18 02:46:00;;;;;;;2.38;1.80;;;20.20;53.80;;;;;;5135088;28;20440;-11
2022/10/18 02:48:25;;;;;;;1.70;1.40;;;20.20;53.20;;;;;;5134911;28;20043;-12
2022/10/18 02:50:51;;;;;;;2.20;1.77;;;20.20;53.30;;;;;;5135239;28;20118;-11
2022/10/18 02:53:16;;;;;;;1.45;1.35;;;20.20;53.40;;;;;;5134971;28;20103;-11
2022/10/18 02:55:42;;;;;;;1.50;1.40;;;20.20;53.40;;;;;;5134967;28;20110;-11
2022/10/18 02:58:07;;;;;;;1.75;1.60;;;20.20;53.30;;;;;;5135208;28;20043;-11
2022/10/18 03:00:33;;;;;;;1.60;1.45;;;20.20;53.30;;;;;;5134710;28;20047;-11
2022/10/18 03:02:58;;;;;;;1.67;1.50;;;20.20;53.20;;;;;;5135133;28;20126;-11
2022/10/18 03:05:24;;;;;;;2.30;1.70;;;20.20;53.30;;;;;;5134859;28;20494;-11
2022/10/18 03:07:49;;;;;;;1.50;1.38;;;20.20;53.30;;;;;;5134830;28;20047;-11
2022/10/18 03:10:15;;;;;;;1.80;1.70;;;20.20;53.40;;;;;;5134806;28;20054;-11
2022/10/18 03:12:41;;;;;;;1.75;1.65;;;20.20;53.20;;;;;;5134690;28;20055;-11
2022/10/18 03:15:06;;;;;;;1.70;1.60;;;20.20;53.20;;;;;;5134463;27;20062;-11
2022/10/18 03:17:32;;;;;;;1.63;1.52;;;20.20;53.30;;;;;;5134505;28;20515;-11
2022/10/18 03:19:59;;;;;;;1.65;1.55;;;20.30;53.20;;;;;;5134297;28;20513;-11
2022/10/18 03:22:26;;;;;;;1.88;1.50;;;20.20;53.30;;;;;;5134804;28;20060;-11
2022/10/18 03:24:52;;;;;;;2.17;1.70;;;20.30;53.30;;;;;;5134561;28;20077;-11
2022/10/18 03:27:18;;;;;;;2.17;1.50;;;20.20;53.40;;;;;;5134300;28;20047;-11
2022/10/18 03:29:43;;;;;;;1.50;1.40;;;20.20;53.40;;;;;;5134822;28;20063;-11
2022/10/18 03:32:09;;;;;;;2.40;2.00;;;20.30;53.40;;;;;;5134301;28;20059;-11
2022/10/18 03:34:34;;;;;;;1.50;1.40;;;20.30;53.50;;;;;;5134574;28;20086;-11
2022/10/18 03:37:00;;;;;;;2.10;1.40;;;20.30;53.40;;;;;;5134271;28;20050;-11
2022/10/18 03:39:26;;;;;;;1.88;1.67;;;20.30;53.50;;;;;;5134717;28;20095;-11
2022/10/18 03:41:51;;;;;;;1.95;1.75;;;20.30;53.60;;;;;;5134803;28;20053;-11
2022/10/18 03:44:17;;;;;;;1.73;1.63;;;20.30;53.60;;;;;;5134482;28;20470;-11
2022/10/18 03:46:42;;;;;;;2.45;1.83;;;20.30;53.70;;;;;;5134161;28;20405;-11
2022/10/18 03:49:08;;;;;;;1.88;1.42;;;20.30;54.20;;;;;;5134079;28;20147;-11
2022/10/18 03:51:34;;;;;;;1.65;1.50;;;20.30;53.70;;;;;;5134002;28;20124;-11
2022/10/18 03:53:59;;;;;;;1.50;1.40;;;20.30;53.80;;;;;;5134329;28;20050;-11
2022/10/18 03:56:25;;;;;;;1.52;1.42;;;20.30;53.80;;;;;;5134052;28;20051;-11
2022/10/18 03:58:51;;;;;;;1.63;1.50;;;20.30;53.80;;;;;;5134348;28;20050;-11
2022/10/18 04:01:16;;;;;;;1.77;1.67;;;20.30;53.80;;;;;;5133970;28;20096;-11
2022/10/18 04:03:42;;;;;;;1.48;1.38;;;20.30;53.80;;;;;;5133958;28;20057;-11
2022/10/18 04:06:08;;;;;;;1.60;1.50;;;20.30;54.40;;;;;;5134083;28;20081;-11
2022/10/18 04:08:34;;;;;;;1.85;1.40;;;20.30;53.80;;;;;;5133681;28;20055;-11
2022/10/18 04:11:04;;;;;;;2.00;1.48;;;20.30;53.90;;;;;;5133647;28;20055;-11
2022/10/18 04:13:30;;;;;;;3.08;1.55;;;20.30;53.90;;;;;;5133757;28;20134;-11
2022/10/18 04:15:55;;;;;;;1.92;1.75;;;20.20;54.00;;;;;;5133678;28;20137;-11
2022/10/18 04:18:21;;;;;;;1.60;1.50;;;20.20;54.00;;;;;;5133668;28;20047;-11
2022/10/18 04:20:47;;;;;;;1.77;1.42;;;20.30;54.00;;;;;;5133691;28;20047;-11
2022/10/18 04:23:12;;;;;;;1.58;1.48;;;20.30;53.90;;;;;;5133876;28;20388;-11
2022/10/18 04:25:38;;;;;;;1.52;1.42;;;20.30;53.90;;;;;;5133789;27;20043;-11
2022/10/18 04:28:04;;;;;;;2.05;1.75;;;20.30;54.40;;;;;;5133023;28;20054;-11
2022/10/18 04:30:29;;;;;;;1.63;1.52;;;20.30;54.00;;;;;;5133527;28;20130;-11
2022/10/18 04:32:55;;;;;;;1.67;1.40;;;20.30;53.90;;;;;;5133416;28;20402;-11
2022/10/18 04:35:23;;;;;;;2.15;1.70;;;20.30;53.90;;;;;;5133510;28;20918;-11
2022/10/18 04:37:49;;;;;;;1.58;1.48;;;20.30;53.90;;;;;;5133262;28;20047;-12
2022/10/18 04:40:15;;;;;;;1.60;1.30;;;20.30;53.80;;;;;;5133462;28;20039;-11
2022/10/18 04:42:40;;;;;;;1.60;1.50;;;20.30;53.70;;;;;;5133287;28;20062;-11
2022/10/18 04:45:06;;;;;;;1.83;1.63;;;20.30;53.70;;;;;;5133397;28;20511;-11
2022/10/18 04:47:32;;;;;;;2.08;1.52;;;20.30;53.70;;;;;;5133242;28;20050;-11
2022/10/18 04:49:58;;;;;;;2.25;1.60;;;20.40;53.70;;;;;;5133531;28;20059;-11
2022/10/18 04:52:23;;;;;;;1.67;1.58;;;20.40;53.70;;;;;;5133415;28;20090;-11
2022/10/18 04:54:49;;;;;;;1.75;1.65;;;20.40;53.70;;;;;;5133901;28;20471;-11
2022/10/18 04:57:14;;;;;;;1.40;1.30;;;20.30;53.80;;;;;;5133023;28;20486;-12
2022/10/18 04:59:40;;;;;;;1.85;1.70;;;20.30;53.80;;;;;;5133169;28;20081;-11
2022/10/18 05:02:05;;;;;;;1.77;1.33;;;20.30;53.70;;;;;;5113316;28;20051;-11
2022/10/18 05:04:31;;;;;;;1.50;1.40;;;20.30;53.70;;;;;;5133497;28;20063;-11
2022/10/18 05:06:56;;;;;;;2.95;1.70;;;20.30;53.60;;;;;;5133023;28;20067;-12
2022/10/18 05:09:23;;;;;;;1.88;1.60;;;20.30;53.70;;;;;;5133049;28;20138;-11
2022/10/18 05:11:49;;;;;;;1.70;1.60;;;20.30;53.60;;;;;;5133215;28;20047;-11
2022/10/18 05:14:15;;;;;;;1.73;1.55;;;20.40;53.70;;;;;;5132934;28;20062;-11
2022/10/18 05:16:40;;;;;;;1.80;1.40;;;20.30;53.60;;;;;;5132713;28;20043;-11
2022/10/18 05:19:06;;;;;;;1.90;1.60;;;20.30;53.60;;;;;;5132548;28;20062;-11
2022/10/18 05:21:32;;;;;;;3.90;1.60;;;20.30;53.60;;;;;;5133333;28;20047;-11
2022/10/18 05:23:58;;;;;;;2.83;1.77;;;20.30;53.80;;;;;;5132876;28;20058;-11
2022/10/18 05:26:24;;;;;;;3.13;1.77;;;20.30;54.20;;;;;;5133095;28;20487;-11
2022/10/18 05:28:49;;;;;;;1.75;1.60;;;20.40;54.40;;;;;;5133352;28;20055;-11
2022/10/18 05:31:16;;;;;;;2.30;1.70;;;20.40;54.60;;;;;;5133154;28;20092;-11
2022/10/18 05:33:41;;;;;;;2.70;1.73;;;20.40;55.20;;;;;;5132757;28;20056;-11
2022/10/18 05:36:08;;;;;;;2.42;1.80;;;20.40;55.50;;;;;;5132807;28;20523;-11
2022/10/18 05:38:33;;;;;;;1.63;1.50;;;20.30;55.80;;;;;;5133529;27;20545;-11
2022/10/18 05:41:02;;;;;;;2.33;1.80;;;20.20;56.00;;;;;;5136357;28;20047;-11
2022/10/18 05:43:28;;;;;;;2.35;1.55;;;20.20;56.00;;;;;;5136035;28;20051;-11
2022/10/18 05:45:54;;;;;;;5.00;1.92;;;20.20;56.50;;;;;;5136024;28;20134;-11
2022/10/18 05:48:20;;;;;;;1.73;1.58;;;20.30;56.00;;;;;;5136234;28;20050;-11
2022/10/18 05:50:46;;;;;;;1.60;1.50;;;20.20;55.90;;;;;;5135859;28;20048;-11
2022/10/18 05:53:11;;;;;;;1.77;1.63;;;20.20;56.00;;;;;;5135735;28;20191;-11
2022/10/18 05:55:37;;;;;;;2.75;1.63;;;20.20;56.50;;;;;;5136474;28;20096;-12
2022/10/18 05:58:03;;;;;;;4.47;1.80;;;20.20;56.30;;;;;;5136350;28;20479;-11
2022/10/18 06:00:29;;;;;;;1.98;1.35;;;20.20;55.80;;;;;;5135796;28;20057;-12
2022/10/18 06:02:54;;;;;;;1.95;1.70;;;20.20;55.80;;;;;;5135901;28;20514;-11
2022/10/18 06:05:20;;;;;;;1.95;1.65;;;20.20;55.60;;;;;;5135423;28;20061;-12
2022/10/18 06:07:46;;;;;;;2.13;1.80;;;20.20;55.50;;;;;;5135670;28;20491;-11
2022/10/18 06:10:11;;;;;;;3.08;1.88;;;20.20;55.60;;;;;;5135576;28;20439;-11
2022/10/18 06:12:37;;;;;;;2.85;1.58;;;20.20;55.60;;;;;;5136089;28;20451;-11
2022/10/18 06:15:03;;;;;;;3.05;2.00;;;20.20;55.60;;;;;;5135587;28;20050;-11
2022/10/18 06:17:30;;;;;;;2.25;1.95;;;20.20;55.60;;;;;;5135137;28;20055;-11
2022/10/18 06:19:55;;;;;;;1.70;1.40;;;20.20;55.50;;;;;;5135154;28;20047;-11
2022/10/18 06:22:21;;;;;;;1.70;1.60;;;20.20;55.40;;;;;;5135295;28;20175;-11
2022/10/18 06:24:46;;;;;;;5.43;1.67;;;20.30;55.30;;;;;;5135349;28;20070;-11
2022/10/18 06:27:12;;;;;;;3.35;1.27;;;20.30;55.30;;;;;;5135155;28;20055;-11
2022/10/18 06:29:38;;;;;;;3.88;1.60;;;20.30;55.20;;;;;;5135166;28;20113;-11
2022/10/18 06:32:06;;;;;;;2.08;1.65;;;20.30;55.10;;;;;;5135049;28;20083;-11
2022/10/18 06:34:32;;;;;;;2.20;2.00;;;20.30;55.10;;;;;;5135136;28;20047;-11
2022/10/18 06:36:58;;;;;;;2.60;1.70;;;20.20;55.20;;;;;;5135165;28;20051;-11
2022/10/18 06:39:23;;;;;;;6.45;1.67;;;20.30;55.30;;;;;;5135164;28;20055;-11
2022/10/18 06:41:49;;;;;;;2.30;1.85;;;20.20;55.30;;;;;;5135457;28;20096;-11
2022/10/18 06:44:19;;;;;;;3.75;1.95;;;20.30;55.20;;;;;;5135241;28;20050;-11
2022/10/18 06:46:46;;;;;;;2.28;1.90;;;20.30;55.10;;;;;;5135207;28;20055;-11
2022/10/18 06:49:13;;;;;;;3.15;1.65;;;20.20;55.20;;;;;;5134361;27;20039;-11
2022/10/18 06:51:39;;;;;;;2.60;2.05;;;20.20;55.20;;;;;;5135402;28;20058;-11
2022/10/18 06:54:05;;;;;;;3.35;2.05;;;20.30;55.20;;;;;;5134847;28;20532;-11
2022/10/18 06:56:31;;;;;;;2.95;1.42;;;20.30;55.20;;;;;;5135171;28;20074;-11
2022/10/18 06:58:56;;;;;;;1.58;1.30;;;20.30;55.20;;;;;;5134806;28;20063;-11
2022/10/18 07:01:22;;;;;;;1.92;1.50;;;20.30;55.20;;;;;;5135257;28;20051;-11
2022/10/18 07:03:50;;;;;;;3.78;1.60;;;20.30;55.10;;;;;;5135314;28;20039;-11
2022/10/18 07:06:17;;;;;;;6.07;1.80;;;20.30;55.00;;;;;;5134646;28;20138;-11
2022/10/18 07:08:44;;;;;;;1.70;1.60;;;20.30;55.00;;;;;;5134619;28;20146;-11
2022/10/18 07:11:22;;;;;;;2.90;1.90;;;20.30;55.10;;;;;;5134900;28;20043;-11
2022/10/18 07:13:48;;;;;;;2.10;1.90;;;20.30;55.00;;;;;;5134740;28;20082;-11
2022/10/18 07:16:16;;;;;;;3.40;2.08;;;20.30;55.00;;;;;;5134299;28;20427;-11
2022/10/18 07:18:48;;;;;;;2.08;1.50;;;20.30;54.90;;;;;;5115924;28;20082;-11
2022/10/18 07:21:16;;;;;;;1.83;1.67;;;20.40;54.90;;;;;;5134656;28;20096;-11
2022/10/18 07:23:43;;;;;;;2.42;1.60;;;20.40;54.90;;;;;;5134336;28;20059;-11
2022/10/18 07:26:29;;;;;;;2.75;1.83;;;20.30;55.30;;;;;;5134121;28;20090;-11
2022/10/18 07:29:08;;;;;;;3.13;1.63;;;20.30;54.90;;;;;;5133985;28;20051;-11
2022/10/18 07:31:34;;;;;;;4.10;1.80;;;20.30;55.20;;;;;;5133952;28;20085;-11
2022/10/18 07:34:02;;;;;;;2.00;1.80;;;20.40;55.20;;;;;;5134262;28;20091;-11
2022/10/18 07:36:27;;;;;;;3.67;1.45;;;20.40;55.20;;;;;;5134473;28;20092;-11
2022/10/18 07:38:53;;;;;;;1.98;1.70;;;20.40;55.20;;;;;;5133873;28;20051;-11
2022/10/18 07:41:20;;;;;;;4.63;1.85;;;20.40;55.20;;;;;;5133845;28;20121;-11
2022/10/18 07:43:52;;;;;;;1.73;1.50;;;20.40;55.30;;;;;;5133999;28;20059;-11
2022/10/18 07:46:19;;;;;;;2.33;1.55;;;20.50;55.60;;;;;;5115698;28;20051;-11
2022/10/18 07:48:45;;;;;;;2.58;1.67;;;20.50;55.30;;;;;;5134252;28;20058;-11
2022/10/18 07:51:11;;;;;;;1.70;1.60;;;20.60;55.60;;;;;;5133795;28;20051;-11
2022/10/18 07:53:37;;;;;;;7.78;1.50;;;20.50;55.50;;;;;;5133857;28;20055;-11
2022/10/18 07:56:05;;;;;;;2.13;1.42;;;20.60;55.40;;;;;;5133939;28;20141;-11
2022/10/18 07:58:32;;;;;;;2.28;1.83;;;20.60;55.50;;;;;;5114534;28;20381;-11
2022/10/18 08:01:06;;;;;;;2.15;1.40;;;20.60;55.40;;;;;;5114313;28;20046;-11
2022/10/18 08:03:32;;;;;;;3.45;1.63;;;20.60;55.30;;;;;;5133875;28;20516;-12
2022/10/18 08:05:57;;;;;;;2.13;1.60;;;20.60;55.20;;;;;;5114998;28;20101;-11
2022/10/18 08:08:24;;;;;;;3.03;1.50;;;20.70;55.30;;;;;;5133612;28;20482;-11
2022/10/18 08:10:50;;;;;;;3.75;1.90;;;20.70;55.10;;;;;;5133272;28;20130;-11
2022/10/18 08:13:16;;;;;;;2.97;1.58;;;20.70;55.10;;;;;;5133550;28;20050;-11
2022/10/18 08:15:42;;;;;;;1.60;1.50;;;20.80;54.90;;;;;;5133507;28;20055;-11
2022/10/18 08:18:08;;;;;;;3.15;1.67;;;20.70;54.90;;;;;;5133434;28;20141;-11
2022/10/18 08:20:35;;;;;;;4.20;1.48;;;20.80;55.20;;;;;;5133848;28;20468;-11
2022/10/18 08:23:03;;;;;;;1.90;1.65;;;20.70;55.10;;;;;;5133781;28;20556;-12
2022/10/18 08:25:29;;;;;;;1.83;1.67;;;20.80;55.00;;;;;;5133497;28;20056;-11
2022/10/18 08:27:55;;;;;;;3.58;2.00;;;20.80;55.00;;;;;;5132939;28;20051;-12
2022/10/18 08:30:22;;;;;;;2.70;1.75;;;20.80;54.90;;;;;;5133331;28;20108;-11
2022/10/18 08:32:48;;;;;;;3.13;1.70;;;20.90;55.00;;;;;;5133161;28;20058;-11
2022/10/18 08:35:14;;;;;;;2.03;1.50;;;20.80;54.90;;;;;;5133749;28;20063;-11
2022/10/18 08:37:40;;;;;;;3.85;1.85;;;20.80;54.90;;;;;;5133243;28;20539;-12
2022/10/18 08:40:06;;;;;;;2.80;1.52;;;20.80;54.80;;;;;;5133370;28;20051;-11
2022/10/18 08:42:56;;;;;;;2.35;1.58;;;20.90;54.80;;;;;;5133389;28;20107;-11
2022/10/18 08:45:23;;;;;;;4.88;1.15;;;20.90;54.70;;;;;;5133429;28;20375;-13
2022/10/18 08:47:52;;;;;;;4.07;1.80;;;20.90;54.50;;;;;;5133414;28;20478;-11
2022/10/18 08:50:25;;;;;;;3.17;1.75;;;20.90;54.40;;;;;;5133096;28;20039;-11
2022/10/18 08:52:54;;;;;;;1.85;1.45;;;20.90;54.40;;;;;;5133435;28;20050;-11
2022/10/18 08:55:23;;;;;;;1.55;1.45;;;20.90;54.40;;;;;;5115053;28;20074;-12
2022/10/18 08:57:50;;;;;;;3.53;1.63;;;20.80;54.40;;;;;;5132894;28;20051;-11
2022/10/18 09:00:27;;;;;;;3.13;1.55;;;20.90;54.40;;;;;;5133042;28;20043;-11
2022/10/18 09:03:06;;;;;;;1.73;1.50;;;20.80;54.40;;;;;;5132816;28;20509;-11
2022/10/18 09:05:40;;;;;;;2.78;1.60;;;20.80;54.20;;;;;;5133054;28;20162;-11
2022/10/18 09:08:24;;;;;;;2.67;1.70;;;20.80;54.10;;;;;;5130722;28;20110;-11
2022/10/18 09:11:04;;;;;;;3.47;1.70;;;20.80;54.20;;;;;;5133055;28;20039;-11
2022/10/18 09:13:58;;;;;;;1.90;1.55;;;20.80;54.10;;;;;;5135643;27;20238;-11
2022/10/18 09:16:47;;;;;;;2.40;1.63;;;20.80;54.20;;;;;;5136222;28;20135;-12
2022/10/18 09:19:58;;;;;;;3.00;1.65;;;20.80;54.10;;;;;;5121799;28;20143;-12
2022/10/18 09:22:51;;;;;;;1.85;1.70;;;20.90;54.10;;;;;;5136840;28;20375;-11
2022/10/18 09:25:28;;;;;;;4.65;1.60;;;20.90;54.00;;;;;;5136194;28;20051;-11
2022/10/18 09:27:55;;;;;;;2.13;1.77;;;20.80;54.00;;;;;;5136269;28;20061;-11
2022/10/18 09:30:31;;;;;;;2.63;1.40;;;20.80;54.00;;;;;;5115841;28;20135;-11
2022/10/18 09:33:33;;;;;;;1.70;1.60;;;20.80;54.00;;;;;;5133920;28;20082;-14
2022/10/18 09:36:05;;;;;;;2.00;1.58;;;20.80;53.90;;;;;;5134702;28;20058;-11
2022/10/18 09:38:47;;;;;;;2.20;1.50;;;20.80;53.80;;;;;;5135957;28;20054;-11
2022/10/18 09:41:24;;;;;;;2.25;1.65;;;20.90;53.90;;;;;;5136143;28;20411;-11
2022/10/18 09:44:25;;;;;;;2.40;1.80;;;20.90;53.90;;;;;;5134706;28;20050;-13
2022/10/18 09:47:15;;;;;;;1.88;1.63;;;20.80;53.80;;;;;;5133538;27;20100;-13
2022/10/18 09:50:04;;;;;;;2.20;1.60;;;20.80;53.80;;;;;;5133546;28;20058;-12
2022/10/18 09:52:41;;;;;;;2.50;1.42;;;20.90;53.80;;;;;;5134498;28;20047;-13
2022/10/18 09:55:16;;;;;;;3.28;1.58;;;20.90;53.70;;;;;;5134919;28;20093;-12
2022/10/18 09:57:50;;;;;;;1.90;1.70;;;20.90;53.70;;;;;;5134320;28;20046;-13
2022/10/18 10:00:23;;;;;;;1.48;1.38;;;20.90;53.70;;;;;;5133712;28;20104;-13
2022/10/18 10:02:49;;;;;;;2.15;1.60;;;20.80;53.70;;;;;;5134958;28;20138;-11
2022/10/18 10:05:15;;;;;;;2.00;1.70;;;20.80;53.70;;;;;;5116505;28;20090;-11
2022/10/18 10:07:43;;;;;;;2.70;1.60;;;20.80;53.70;;;;;;5135747;28;20055;-11
2022/10/18 10:10:23;;;;;;;1.88;1.40;;;20.90;53.70;;;;;;5135549;28;20099;-11
2022/10/18 10:13:21;;;;;;;2.05;1.50;;;20.80;53.70;;;;;;5135660;28;20051;-11
2022/10/18 10:16:01;;;;;;;2.00;1.80;;;20.80;53.70;;;;;;5126251;28;20170;-13
2022/10/18 10:18:32;;;;;;;1.88;1.52;;;20.80;53.60;;;;;;5135435;28;20134;-11
2022/10/18 10:21:00;;;;;;;2.47;1.88;;;20.90;53.70;;;;;;5135779;28;20413;-11
2022/10/18 10:23:38;;;;;;;2.13;1.70;;;20.80;53.70;;;;;;5135480;27;20047;-11
2022/10/18 10:26:18;;;;;;;2.22;1.80;;;20.80;53.90;;;;;;5114728;28;20059;-11
2022/10/18 10:28:47;;;;;;;2.30;1.63;;;20.80;53.80;;;;;;5135240;28;20062;-11
2022/10/18 10:31:57;;;;;;;2.55;1.70;;;20.80;53.70;;;;;;5135228;28;20047;-11
2022/10/18 10:34:28;;;;;;;2.45;1.90;;;20.80;53.80;;;;;;5096435;28;20467;-11
2022/10/18 10:36:54;;;;;;;1.75;1.60;;;20.80;53.70;;;;;;5135369;28;20513;-11
2022/10/18 10:39:22;;;;;;;3.45;2.05;;;20.80;53.80;;;;;;5135253;28;20078;-12
2022/10/18 10:41:51;;;;;;;2.22;2.03;;;20.80;54.10;;;;;;5134983;28;20051;-12
2022/10/18 10:44:23;;;;;;;3.08;2.08;;;20.80;54.30;;;;;;5134970;28;20047;-11
2022/10/18 10:46:50;;;;;;;5.70;2.35;;;20.80;54.40;;;;;;5135423;28;20469;-11
2022/10/18 10:49:26;;;;;;;2.25;1.92;;;20.90;54.50;;;;;;5135033;28;20057;-11
2022/10/18 10:51:57;;;;;;;3.78;2.22;;;20.90;54.60;;;;;;5135162;28;20039;-11
2022/10/18 10:54:25;;;;;;;2.22;1.60;;;20.90;54.60;;;;;;5134944;28;20112;-11
2022/10/18 10:56:57;;;;;;;3.22;2.33;;;20.80;54.70;;;;;;5135142;28;21244;-11
2022/10/18 10:59:25;;;;;;;2.95;2.00;;;20.80;54.80;;;;;;5134622;28;20408;-11
2022/10/18 11:02:19;;;;;;;3.13;2.20;;;20.80;54.80;;;;;;5134790;28;20127;-11
2022/10/18 11:04:47;;;;;;;3.75;2.10;;;20.90;54.70;;;;;;5134737;28;20047;-11
2022/10/18 11:07:35;;;;;;;2.20;2.00;;;20.80;54.70;;;;;;5134635;28;20055;-11
2022/10/18 11:10:15;;;;;;;3.10;2.47;;;20.80;54.70;;;;;;5134633;28;20411;-12
2022/10/18 11:12:47;;;;;;;2.92;2.20;;;20.90;54.60;;;;;;5134609;28;20126;-11
2022/10/18 11:15:17;;;;;;;4.22;2.10;;;21.00;54.60;;;;;;5134528;28;20108;-11
2022/10/18 11:18:13;;;;;;;4.80;2.40;;;20.90;54.50;;;;;;5134974;28;20055;-11
2022/10/18 11:20:59;;;;;;;4.05;2.45;;;21.00;54.60;;;;;;5126142;28;20043;-11
2022/10/18 11:23:30;;;;;;;2.20;1.83;;;20.90;54.60;;;;;;5134470;28;20138;-11
2022/10/18 11:26:11;;;;;;;2.83;2.05;;;21.00;54.60;;;;;;5134857;28;20092;-11
2022/10/18 11:29:05;;;;;;;2.75;2.13;;;21.00;54.50;;;;;;5134942;28;20129;-11
2022/10/18 11:31:47;;;;;;;2.65;2.00;;;21.00;54.40;;;;;;5134861;28;20047;-11
2022/10/18 11:34:12;;;;;;;2.58;2.20;;;20.90;54.50;;;;;;5134655;28;20047;-11
2022/10/18 11:36:54;;;;;;;3.42;2.15;;;20.90;54.50;;;;;;5134084;27;20064;-11
2022/10/18 11:39:26;;;;;;;3.35;2.10;;;20.90;54.50;;;;;;5134530;28;20395;-11
2022/10/18 11:42:09;;;;;;;3.10;2.00;;;21.00;54.50;;;;;;5134189;28;20035;-11
2022/10/18 11:44:40;;;;;;;3.28;2.25;;;20.90;54.50;;;;;;5134058;28;20395;-11
2022/10/18 11:47:18;;;;;;;4.40;1.98;;;20.90;54.60;;;;;;5134050;28;20115;-11
2022/10/18 11:50:25;;;;;;;3.10;2.25;;;21.00;54.60;;;;;;5134024;28;20396;-11
2022/10/18 11:53:30;;;;;;;2.20;1.98;;;20.90;54.60;;;;;;5133871;28;20047;-11
2022/10/18 11:56:01;;;;;;;2.33;2.13;;;21.00;54.60;;;;;;5133760;28;20149;-11
2022/10/18 11:58:48;;;;;;;2.42;2.22;;;21.00;54.60;;;;;;5134182;28;20474;-12
2022/10/18 12:01:23;;;;;;;3.72;2.58;;;21.00;54.60;;;;;;5134181;28;20882;-11
2022/10/18 12:04:12;;;;;;;2.90;2.40;;;21.00;54.70;;;;;;5133827;28;20096;-12
2022/10/18 12:06:41;;;;;;;3.67;2.38;;;21.00;54.70;;;;;;5133777;28;20047;-11
2022/10/18 12:09:15;;;;;;;2.85;2.00;;;20.90;54.60;;;;;;5115312;28;20100;-11
2022/10/18 12:11:53;;;;;;;4.82;2.40;;;21.00;54.70;;;;;;5133899;28;20459;-11
2022/10/18 12:14:45;;;;;;;4.47;2.42;;;21.00;54.70;;;;;;5134347;28;20047;-11
2022/10/18 12:17:31;;;;;;;4.95;2.67;;;21.00;54.70;;;;;;5134169;28;20054;-11
2022/10/18 12:20:10;;;;;;;4.85;2.25;;;21.00;54.60;;;;;;5116884;28;20509;-11
2022/10/18 12:22:41;;;;;;;3.40;2.30;;;21.00;54.60;;;;;;5133655;28;20555;-11
2022/10/18 12:25:13;;;;;;;3.63;2.47;;;21.00;54.60;;;;;;5133810;28;20474;-11
2022/10/18 12:27:47;;;;;;;5.40;2.40;;;21.00;54.70;;;;;;5133575;28;20051;-11
2022/10/18 12:30:31;;;;;;;3.38;2.08;;;21.00;54.70;;;;;;5133815;28;20091;-11
2022/10/18 12:33:09;;;;;;;2.83;2.42;;;21.00;54.80;;;;;;5133562;28;20204;-11
2022/10/18 12:35:53;;;;;;;3.85;2.30;;;21.00;54.80;;;;;;5134060;28;20047;-11
2022/10/18 12:38:25;;;;;;;5.97;2.70;;;20.90;54.80;;;;;;5133278;28;20054;-11
2022/10/18 12:40:53;;;;;;;5.25;2.65;;;21.00;54.90;;;;;;5132982;28;20055;-13
2022/10/18 12:43:25;;;;;;;3.42;2.30;;;20.90;54.90;;;;;;5133234;28;20048;-11
2022/10/18 12:45:54;;;;;;;5.38;2.33;;;20.90;54.90;;;;;;5131694;28;20055;-12
2022/10/18 12:48:41;;;;;;;4.05;2.55;;;20.90;54.80;;;;;;5135281;27;20071;-11
2022/10/18 12:51:14;;;;;;;3.92;2.35;;;20.90;54.80;;;;;;5136817;28;20093;-11
2022/10/18 12:53:43;;;;;;;3.92;2.42;;;20.90;54.90;;;;;;5135533;28;20078;-11
2022/10/18 12:56:30;;;;;;;3.10;2.20;;;21.00;54.90;;;;;;5136844;28;20076;-10
2022/10/18 12:59:14;;;;;;;2.75;2.20;;;20.90;54.80;;;;;;5121287;28;20078;-10
2022/10/18 13:01:49;;;;;;;3.83;2.33;;;21.00;54.90;;;;;;5137318;28;20058;-11
2022/10/18 13:04:27;;;;;;;5.28;2.35;;;21.00;54.80;;;;;;5136663;28;20063;-14
2022/10/18 13:06:56;;;;;;;3.38;2.20;;;21.00;54.80;;;;;;5134143;28;20063;-11
2022/10/18 13:09:37;;;;;;;4.65;2.30;;;21.00;54.80;;;;;;5134126;28;20062;-12